sensor_id;sensor_type;location;lat;lon;timestamp;temperature;humidity
10344;DHT22;5217;43.960;10.954;2022-12-05T00:02:02;16.00;99.90
10344;DHT22;5217;43.960;10.954;2022-12-05T00:04:30;16.00;99.90
10344;DHT22;5217;43.960;10.954;2022-12-05T00:07:00;16.00;99.90
10344;DHT22;5217;43.960;10.954;2022-12-05T00:09:29;16.00;99.90
10344;DHT22;5217;43.960;10.954;2022-12-05T00:11:58;16.00;99.90
10344;DHT22;5217;43.960;10.954;2022-12-05T00:14:26;16.00;99.90
10344;DHT22;5217;43.960;10.954;2022-12-05T00:16:55;16.00;99.90
10344;DHT22;5217;43.960;10.954;2022-12-05T00:19:24;16.00;99.90
10344;DHT22;5217;43.960;10.954;2022-12-05T00:21:52;16.00;99.90
10344;DHT22;5217;43.960;10.954;2022-12-05T00:24:22;16.00;99.90
10344;DHT22;5217;43.960;10.954;2022-12-05T00:26:51;15.90;99.90
10344;DHT22;5217;43.960;10.954;2022-12-05T00:29:20;16.00;99.90
10344;DHT22;5217;43.960;10.954;2022-12-05T00:31:48;16.00;99.90
10344;DHT22;5217;43.960;10.954;2022-12-05T00:34:17;16.00;99.90
10344;DHT22;5217;43.960;10.954;2022-12-05T00:36:46;16.00;99.90
10344;DHT22;5217;43.960;10.954;2022-12-05T00:39:14;16.00;99.90
10344;DHT22;5217;43.960;10.954;2022-12-05T00:41:44;16.00;99.90
10344;DHT22;5217;43.960;10.954;2022-12-05T00:44:13;16.00;99.90
10344;DHT22;5217;43.960;10.954;2022-12-05T00:46:42;16.00;99.90
10344;DHT22;5217;43.960;10.954;2022-12-05T00:49:11;16.00;99.90
10344;DHT22;5217;43.960;10.954;2022-12-05T00:51:41;16.00;99.90
10344;DHT22;5217;43.960;10.954;2022-12-05T00:54:11;16.00;99.90
10344;DHT22;5217;43.960;10.954;2022-12-05T00:56:41;16.00;99.90
10344;DHT22;5217;43.960;10.954;2022-12-05T00:59:17;15.90;99.90
10344;DHT22;5217;43.960;10.954;2022-12-05T01:01:47;16.00;99.90
10344;DHT22;5217;43.960;10.954;2022-12-05T01:04:18;15.90;99.90
10344;DHT22;5217;43.960;10.954;2022-12-05T01:06:47;15.90;99.90
10344;DHT22;5217;43.960;10.954;2022-12-05T01:09:18;15.90;99.90
10344;DHT22;5217;43.960;10.954;2022-12-05T01:11:47;15.90;99.90
10344;DHT22;5217;43.960;10.954;2022-12-05T01:14:19;15.90;99.90
10344;DHT22;5217;43.960;10.954;2022-12-05T01:16:50;15.90;99.90
10344;DHT22;5217;43.960;10.954;2022-12-05T01:19:21;15.90;99.90
10344;DHT22;5217;43.960;10.954;2022-12-05T01:21:50;15.90;99.90
10344;DHT22;5217;43.960;10.954;2022-12-05T01:24:20;15.90;99.90
10344;DHT22;5217;43.960;10.954;2022-12-05T01:26:49;15.90;99.90
10344;DHT22;5217;43.960;10.954;2022-12-05T01:29:20;15.90;99.90
10344;DHT22;5217;43.960;10.954;2022-12-05T01:31:49;15.90;99.90
10344;DHT22;5217;43.960;10.954;2022-12-05T01:34:18;15.90;99.90
10344;DHT22;5217;43.960;10.954;2022-12-05T01:36:47;15.80;99.90
10344;DHT22;5217;43.960;10.954;2022-12-05T01:39:16;15.80;99.90
10344;DHT22;5217;43.960;10.954;2022-12-05T01:41:47;15.80;99.90
10344;DHT22;5217;43.960;10.954;2022-12-05T01:47:28;15.80;99.90
10344;DHT22;5217;43.960;10.954;2022-12-05T01:49:58;15.80;99.90
10344;DHT22;5217;43.960;10.954;2022-12-05T01:52:29;15.80;99.90
10344;DHT22;5217;43.960;10.954;2022-12-05T01:55:01;15.80;99.90
10344;DHT22;5217;43.960;10.954;2022-12-05T01:57:31;15.80;99.90
10344;DHT22;5217;43.960;10.954;2022-12-05T02:00:04;15.80;99.90
10344;DHT22;5217;43.960;10.954;2022-12-05T02:02:34;15.80;99.90
10344;DHT22;5217;43.960;10.954;2022-12-05T02:05:05;15.80;99.90
10344;DHT22;5217;43.960;10.954;2022-12-05T02:07:38;15.80;99.90
10344;DHT22;5217;43.960;10.954;2022-12-05T02:10:09;15.80;99.90
10344;DHT22;5217;43.960;10.954;2022-12-05T02:12:38;15.80;99.90
10344;DHT22;5217;43.960;10.954;2022-12-05T02:15:31;15.80;99.90
10344;DHT22;5217;43.960;10.954;2022-12-05T02:18:17;15.80;99.90
10344;DHT22;5217;43.960;10.954;2022-12-05T02:20:59;15.80;99.90
10344;DHT22;5217;43.960;10.954;2022-12-05T02:23:47;15.70;99.90
10344;DHT22;5217;43.960;10.954;2022-12-05T02:26:51;15.70;99.90
10344;DHT22;5217;43.960;10.954;2022-12-05T02:32:28;15.70;99.90
10344;DHT22;5217;43.960;10.954;2022-12-05T02:35:03;15.70;99.90
10344;DHT22;5217;43.960;10.954;2022-12-05T02:37:39;15.70;99.90
10344;DHT22;5217;43.960;10.954;2022-12-05T02:40:14;15.70;99.90
10344;DHT22;5217;43.960;10.954;2022-12-05T02:42:49;15.70;99.90
10344;DHT22;5217;43.960;10.954;2022-12-05T02:45:24;15.70;99.90
10344;DHT22;5217;43.960;10.954;2022-12-05T02:47:55;15.70;99.90
10344;DHT22;5217;43.960;10.954;2022-12-05T02:50:27;15.70;99.90
10344;DHT22;5217;43.960;10.954;2022-12-05T02:53:01;15.70;99.90
10344;DHT22;5217;43.960;10.954;2022-12-05T02:55:31;15.60;99.90
10344;DHT22;5217;43.960;10.954;2022-12-05T02:58:04;15.60;99.90
10344;DHT22;5217;43.960;10.954;2022-12-05T03:00:35;15.60;99.90
10344;DHT22;5217;43.960;10.954;2022-12-05T03:03:13;15.60;99.90
10344;DHT22;5217;43.960;10.954;2022-12-05T03:05:46;15.60;99.90
10344;DHT22;5217;43.960;10.954;2022-12-05T03:08:19;15.60;99.90
10344;DHT22;5217;43.960;10.954;2022-12-05T03:10:50;15.60;99.90
10344;DHT22;5217;43.960;10.954;2022-12-05T03:13:24;15.60;99.90
10344;DHT22;5217;43.960;10.954;2022-12-05T03:15:57;15.60;99.90
10344;DHT22;5217;43.960;10.954;2022-12-05T03:18:30;15.60;99.90
10344;DHT22;5217;43.960;10.954;2022-12-05T03:21:04;15.60;99.90
10344;DHT22;5217;43.960;10.954;2022-12-05T03:23:38;15.60;99.90
10344;DHT22;5217;43.960;10.954;2022-12-05T03:26:17;15.60;99.90
10344;DHT22;5217;43.960;10.954;2022-12-05T03:28:57;15.60;99.90
10344;DHT22;5217;43.960;10.954;2022-12-05T03:31:33;15.60;99.90
10344;DHT22;5217;43.960;10.954;2022-12-05T03:34:11;15.60;99.90
10344;DHT22;5217;43.960;10.954;2022-12-05T03:36:45;15.60;99.90
10344;DHT22;5217;43.960;10.954;2022-12-05T03:39:20;15.60;99.90
10344;DHT22;5217;43.960;10.954;2022-12-05T03:41:54;15.60;99.90
10344;DHT22;5217;43.960;10.954;2022-12-05T03:44:29;15.50;99.90
10344;DHT22;5217;43.960;10.954;2022-12-05T03:47:04;15.60;99.90
10344;DHT22;5217;43.960;10.954;2022-12-05T03:49:38;15.50;99.90
10344;DHT22;5217;43.960;10.954;2022-12-05T03:52:11;15.60;99.90
10344;DHT22;5217;43.960;10.954;2022-12-05T03:54:44;15.60;99.90
10344;DHT22;5217;43.960;10.954;2022-12-05T03:57:16;15.60;99.90
10344;DHT22;5217;43.960;10.954;2022-12-05T03:59:50;15.60;99.90
10344;DHT22;5217;43.960;10.954;2022-12-05T04:02:23;15.60;99.90
10344;DHT22;5217;43.960;10.954;2022-12-05T04:05:00;15.60;99.90
10344;DHT22;5217;43.960;10.954;2022-12-05T04:07:31;15.60;99.90
10344;DHT22;5217;43.960;10.954;2022-12-05T04:10:04;15.60;99.90
10344;DHT22;5217;43.960;10.954;2022-12-05T04:12:35;15.60;99.90
10344;DHT22;5217;43.960;10.954;2022-12-05T04:15:08;15.60;99.90
10344;DHT22;5217;43.960;10.954;2022-12-05T04:17:43;15.60;99.90
10344;DHT22;5217;43.960;10.954;2022-12-05T04:20:22;15.60;99.90
10344;DHT22;5217;43.960;10.954;2022-12-05T04:23:09;15.60;99.90
10344;DHT22;5217;43.960;10.954;2022-12-05T04:25:47;15.60;99.90
10344;DHT22;5217;43.960;10.954;2022-12-05T04:28:25;15.50;99.90
10344;DHT22;5217;43.960;10.954;2022-12-05T04:31:02;15.60;99.90
10344;DHT22;5217;43.960;10.954;2022-12-05T04:33:36;15.50;99.90
10344;DHT22;5217;43.960;10.954;2022-12-05T04:36:12;15.50;99.90
10344;DHT22;5217;43.960;10.954;2022-12-05T04:38:44;15.50;99.90
10344;DHT22;5217;43.960;10.954;2022-12-05T04:41:18;15.50;99.90
10344;DHT22;5217;43.960;10.954;2022-12-05T04:43:49;15.50;99.90
10344;DHT22;5217;43.960;10.954;2022-12-05T04:46:19;15.60;99.90
10344;DHT22;5217;43.960;10.954;2022-12-05T04:48:51;15.50;99.90
10344;DHT22;5217;43.960;10.954;2022-12-05T04:51:24;15.50;99.90
10344;DHT22;5217;43.960;10.954;2022-12-05T04:53:57;15.50;99.90
10344;DHT22;5217;43.960;10.954;2022-12-05T04:56:31;15.50;99.90
10344;DHT22;5217;43.960;10.954;2022-12-05T04:59:01;15.50;99.90
10344;DHT22;5217;43.960;10.954;2022-12-05T05:01:33;15.50;99.90
10344;DHT22;5217;43.960;10.954;2022-12-05T05:04:07;15.50;99.90
10344;DHT22;5217;43.960;10.954;2022-12-05T05:06:38;15.50;99.90
10344;DHT22;5217;43.960;10.954;2022-12-05T05:09:07;15.50;99.90
10344;DHT22;5217;43.960;10.954;2022-12-05T05:11:36;15.50;99.90
10344;DHT22;5217;43.960;10.954;2022-12-05T05:14:04;15.50;99.90
10344;DHT22;5217;43.960;10.954;2022-12-05T05:16:34;15.50;99.90
10344;DHT22;5217;43.960;10.954;2022-12-05T05:19:03;15.50;99.90
10344;DHT22;5217;43.960;10.954;2022-12-05T05:21:34;15.50;99.90
10344;DHT22;5217;43.960;10.954;2022-12-05T05:24:05;15.50;99.90
10344;DHT22;5217;43.960;10.954;2022-12-05T05:26:35;15.50;99.90
10344;DHT22;5217;43.960;10.954;2022-12-05T05:29:04;15.50;99.90
10344;DHT22;5217;43.960;10.954;2022-12-05T05:31:33;15.50;99.90
10344;DHT22;5217;43.960;10.954;2022-12-05T05:34:02;15.50;99.90
10344;DHT22;5217;43.960;10.954;2022-12-05T05:36:36;15.50;99.90
10344;DHT22;5217;43.960;10.954;2022-12-05T05:39:11;15.50;99.90
10344;DHT22;5217;43.960;10.954;2022-12-05T05:41:41;15.50;99.90
10344;DHT22;5217;43.960;10.954;2022-12-05T05:44:10;15.50;99.90
10344;DHT22;5217;43.960;10.954;2022-12-05T05:46:38;15.50;99.90
10344;DHT22;5217;43.960;10.954;2022-12-05T05:49:06;15.50;99.90
10344;DHT22;5217;43.960;10.954;2022-12-05T05:51:35;15.50;99.90
10344;DHT22;5217;43.960;10.954;2022-12-05T05:54:03;15.50;99.90
10344;DHT22;5217;43.960;10.954;2022-12-05T05:56:33;15.50;99.90
10344;DHT22;5217;43.960;10.954;2022-12-05T05:59:02;15.40;99.90
10344;DHT22;5217;43.960;10.954;2022-12-05T06:01:31;15.50;99.90
10344;DHT22;5217;43.960;10.954;2022-12-05T06:03:59;15.50;99.90
10344;DHT22;5217;43.960;10.954;2022-12-05T06:06:28;15.50;99.90
10344;DHT22;5217;43.960;10.954;2022-12-05T06:08:56;15.50;99.90
10344;DHT22;5217;43.960;10.954;2022-12-05T06:11:26;15.50;99.90
10344;DHT22;5217;43.960;10.954;2022-12-05T06:13:58;15.50;99.90
10344;DHT22;5217;43.960;10.954;2022-12-05T06:16:29;15.50;99.90
10344;DHT22;5217;43.960;10.954;2022-12-05T06:18:58;15.50;99.90
10344;DHT22;5217;43.960;10.954;2022-12-05T06:21:26;15.50;99.90
10344;DHT22;5217;43.960;10.954;2022-12-05T06:23:54;15.50;99.90
10344;DHT22;5217;43.960;10.954;2022-12-05T06:26:23;15.50;99.90
10344;DHT22;5217;43.960;10.954;2022-12-05T06:28:52;15.50;99.90
10344;DHT22;5217;43.960;10.954;2022-12-05T06:31:22;15.50;99.90
10344;DHT22;5217;43.960;10.954;2022-12-05T06:33:53;15.50;99.90
10344;DHT22;5217;43.960;10.954;2022-12-05T06:36:21;15.50;99.90
10344;DHT22;5217;43.960;10.954;2022-12-05T06:38:50;15.50;99.90
10344;DHT22;5217;43.960;10.954;2022-12-05T06:41:19;15.50;99.90
10344;DHT22;5217;43.960;10.954;2022-12-05T06:43:51;15.50;99.90
10344;DHT22;5217;43.960;10.954;2022-12-05T06:46:29;15.50;99.90
10344;DHT22;5217;43.960;10.954;2022-12-05T06:48:58;15.50;99.90
10344;DHT22;5217;43.960;10.954;2022-12-05T06:51:26;15.50;99.90
10344;DHT22;5217;43.960;10.954;2022-12-05T06:53:55;15.50;99.90
10344;DHT22;5217;43.960;10.954;2022-12-05T06:56:23;15.50;99.90
10344;DHT22;5217;43.960;10.954;2022-12-05T06:58:52;15.60;99.90
10344;DHT22;5217;43.960;10.954;2022-12-05T07:01:22;15.50;99.90
10344;DHT22;5217;43.960;10.954;2022-12-05T07:04:13;15.60;99.90
10344;DHT22;5217;43.960;10.954;2022-12-05T07:06:43;15.60;99.90
10344;DHT22;5217;43.960;10.954;2022-12-05T07:09:18;15.60;99.90
10344;DHT22;5217;43.960;10.954;2022-12-05T07:11:47;15.60;99.90
10344;DHT22;5217;43.960;10.954;2022-12-05T07:14:16;15.60;99.90
10344;DHT22;5217;43.960;10.954;2022-12-05T07:17:04;15.60;99.90
10344;DHT22;5217;43.960;10.954;2022-12-05T07:19:34;15.60;99.90
10344;DHT22;5217;43.960;10.954;2022-12-05T07:22:03;15.60;99.90
10344;DHT22;5217;43.960;10.954;2022-12-05T07:24:39;15.60;99.90
10344;DHT22;5217;43.960;10.954;2022-12-05T07:27:08;15.60;99.90
10344;DHT22;5217;43.960;10.954;2022-12-05T07:29:36;15.60;99.90
10344;DHT22;5217;43.960;10.954;2022-12-05T07:32:05;15.60;99.90
10344;DHT22;5217;43.960;10.954;2022-12-05T07:34:35;15.60;99.90
10344;DHT22;5217;43.960;10.954;2022-12-05T07:37:05;15.60;99.90
10344;DHT22;5217;43.960;10.954;2022-12-05T07:39:34;15.60;99.90
10344;DHT22;5217;43.960;10.954;2022-12-05T07:42:02;15.60;99.90
10344;DHT22;5217;43.960;10.954;2022-12-05T07:44:30;15.60;99.90
10344;DHT22;5217;43.960;10.954;2022-12-05T07:46:59;15.70;99.90
10344;DHT22;5217;43.960;10.954;2022-12-05T07:49:27;15.60;99.90
10344;DHT22;5217;43.960;10.954;2022-12-05T07:51:57;15.70;99.90
10344;DHT22;5217;43.960;10.954;2022-12-05T07:54:25;15.70;99.90
10344;DHT22;5217;43.960;10.954;2022-12-05T07:56:54;15.70;99.90
10344;DHT22;5217;43.960;10.954;2022-12-05T07:59:22;15.70;99.90
10344;DHT22;5217;43.960;10.954;2022-12-05T08:01:50;15.70;99.90
10344;DHT22;5217;43.960;10.954;2022-12-05T08:04:19;15.70;99.90
10344;DHT22;5217;43.960;10.954;2022-12-05T08:06:47;15.70;99.90
10344;DHT22;5217;43.960;10.954;2022-12-05T08:09:17;15.70;99.90
10344;DHT22;5217;43.960;10.954;2022-12-05T08:11:45;15.70;99.90
10344;DHT22;5217;43.960;10.954;2022-12-05T08:14:18;15.70;99.90
10344;DHT22;5217;43.960;10.954;2022-12-05T08:16:47;15.70;99.90
10344;DHT22;5217;43.960;10.954;2022-12-05T08:19:16;15.70;99.90
10344;DHT22;5217;43.960;10.954;2022-12-05T08:21:44;15.70;99.90
10344;DHT22;5217;43.960;10.954;2022-12-05T08:24:12;15.80;99.90
10344;DHT22;5217;43.960;10.954;2022-12-05T08:26:42;15.80;99.90
10344;DHT22;5217;43.960;10.954;2022-12-05T08:29:12;15.80;99.90
10344;DHT22;5217;43.960;10.954;2022-12-05T08:31:42;15.80;99.90
10344;DHT22;5217;43.960;10.954;2022-12-05T08:34:13;15.80;99.90
10344;DHT22;5217;43.960;10.954;2022-12-05T08:36:42;15.80;99.90
10344;DHT22;5217;43.960;10.954;2022-12-05T08:39:12;15.80;99.90
10344;DHT22;5217;43.960;10.954;2022-12-05T08:41:44;15.80;99.90
10344;DHT22;5217;43.960;10.954;2022-12-05T08:44:13;15.80;99.90
10344;DHT22;5217;43.960;10.954;2022-12-05T08:46:44;15.80;99.90
10344;DHT22;5217;43.960;10.954;2022-12-05T08:49:14;15.80;99.90
10344;DHT22;5217;43.960;10.954;2022-12-05T08:51:43;15.80;99.90
10344;DHT22;5217;43.960;10.954;2022-12-05T08:54:11;15.80;99.90
10344;DHT22;5217;43.960;10.954;2022-12-05T08:56:40;15.80;99.90
10344;DHT22;5217;43.960;10.954;2022-12-05T08:59:09;15.80;99.90
10344;DHT22;5217;43.960;10.954;2022-12-05T09:01:38;15.90;99.90
10344;DHT22;5217;43.960;10.954;2022-12-05T09:04:08;15.90;99.90
10344;DHT22;5217;43.960;10.954;2022-12-05T09:06:39;15.80;99.90
10344;DHT22;5217;43.960;10.954;2022-12-05T09:09:09;15.90;99.90
10344;DHT22;5217;43.960;10.954;2022-12-05T09:11:40;15.90;99.90
10344;DHT22;5217;43.960;10.954;2022-12-05T09:14:14;15.90;99.90
10344;DHT22;5217;43.960;10.954;2022-12-05T09:16:44;16.00;99.90
10344;DHT22;5217;43.960;10.954;2022-12-05T09:19:15;15.90;99.90
10344;DHT22;5217;43.960;10.954;2022-12-05T09:21:44;15.90;99.90
10344;DHT22;5217;43.960;10.954;2022-12-05T09:24:12;16.00;99.90
10344;DHT22;5217;43.960;10.954;2022-12-05T09:26:41;16.00;99.90
10344;DHT22;5217;43.960;10.954;2022-12-05T09:29:10;16.00;99.90
10344;DHT22;5217;43.960;10.954;2022-12-05T09:31:47;16.00;99.90
10344;DHT22;5217;43.960;10.954;2022-12-05T09:34:18;16.00;99.90
10344;DHT22;5217;43.960;10.954;2022-12-05T09:36:46;16.00;99.90
10344;DHT22;5217;43.960;10.954;2022-12-05T09:39:36;16.00;99.90
10344;DHT22;5217;43.960;10.954;2022-12-05T09:42:33;16.00;99.90
10344;DHT22;5217;43.960;10.954;2022-12-05T09:45:17;16.00;99.90
10344;DHT22;5217;43.960;10.954;2022-12-05T09:47:52;16.00;99.90
10344;DHT22;5217;43.960;10.954;2022-12-05T09:50:24;16.00;99.90
10344;DHT22;5217;43.960;10.954;2022-12-05T09:53:05;16.00;99.90
10344;DHT22;5217;43.960;10.954;2022-12-05T09:55:44;16.00;99.90
10344;DHT22;5217;43.960;10.954;2022-12-05T09:58:20;16.00;99.90
10344;DHT22;5217;43.960;10.954;2022-12-05T10:00:51;16.10;99.90
10344;DHT22;5217;43.960;10.954;2022-12-05T10:03:26;16.10;99.90
10344;DHT22;5217;43.960;10.954;2022-12-05T10:06:05;16.10;99.90
10344;DHT22;5217;43.960;10.954;2022-12-05T10:08:46;16.10;99.90
10344;DHT22;5217;43.960;10.954;2022-12-05T10:11:24;16.10;99.90
10344;DHT22;5217;43.960;10.954;2022-12-05T10:14:00;16.10;99.90
10344;DHT22;5217;43.960;10.954;2022-12-05T10:16:35;16.10;99.90
10344;DHT22;5217;43.960;10.954;2022-12-05T10:19:11;16.20;99.90
10344;DHT22;5217;43.960;10.954;2022-12-05T10:21:47;16.20;99.90
10344;DHT22;5217;43.960;10.954;2022-12-05T10:24:20;16.20;99.90
10344;DHT22;5217;43.960;10.954;2022-12-05T10:26:53;16.20;99.90
10344;DHT22;5217;43.960;10.954;2022-12-05T10:29:28;16.30;99.90
10344;DHT22;5217;43.960;10.954;2022-12-05T10:32:03;16.30;99.90
10344;DHT22;5217;43.960;10.954;2022-12-05T10:34:37;16.30;99.90
10344;DHT22;5217;43.960;10.954;2022-12-05T10:37:10;16.30;99.90
10344;DHT22;5217;43.960;10.954;2022-12-05T10:39:41;16.30;99.90
10344;DHT22;5217;43.960;10.954;2022-12-05T10:42:13;16.30;99.90
10344;DHT22;5217;43.960;10.954;2022-12-05T10:44:42;16.40;99.90
10344;DHT22;5217;43.960;10.954;2022-12-05T10:47:11;16.40;99.90
10344;DHT22;5217;43.960;10.954;2022-12-05T10:49:41;16.40;99.90
10344;DHT22;5217;43.960;10.954;2022-12-05T10:52:12;16.40;99.90
10344;DHT22;5217;43.960;10.954;2022-12-05T10:54:44;16.40;99.90
10344;DHT22;5217;43.960;10.954;2022-12-05T10:57:25;16.50;99.90
10344;DHT22;5217;43.960;10.954;2022-12-05T10:59:53;16.50;99.90
10344;DHT22;5217;43.960;10.954;2022-12-05T11:02:25;16.50;99.90
10344;DHT22;5217;43.960;10.954;2022-12-05T11:04:56;16.50;99.90
10344;DHT22;5217;43.960;10.954;2022-12-05T11:07:29;16.60;99.90
10344;DHT22;5217;43.960;10.954;2022-12-05T11:09:59;16.60;99.90
10344;DHT22;5217;43.960;10.954;2022-12-05T11:12:29;16.60;99.90
10344;DHT22;5217;43.960;10.954;2022-12-05T11:15:05;16.60;99.90
10344;DHT22;5217;43.960;10.954;2022-12-05T11:17:36;16.50;99.90
10344;DHT22;5217;43.960;10.954;2022-12-05T11:20:32;16.50;99.90
10344;DHT22;5217;43.960;10.954;2022-12-05T11:23:16;16.50;99.90
10344;DHT22;5217;43.960;10.954;2022-12-05T11:25:45;16.50;99.90
10344;DHT22;5217;43.960;10.954;2022-12-05T11:28:32;16.50;99.90
10344;DHT22;5217;43.960;10.954;2022-12-05T11:31:02;16.50;99.90
10344;DHT22;5217;43.960;10.954;2022-12-05T11:33:31;16.60;99.90
10344;DHT22;5217;43.960;10.954;2022-12-05T11:36:05;16.50;99.90
10344;DHT22;5217;43.960;10.954;2022-12-05T11:38:38;16.50;99.90
10344;DHT22;5217;43.960;10.954;2022-12-05T11:41:24;16.50;99.90
10344;DHT22;5217;43.960;10.954;2022-12-05T11:44:16;16.50;99.90
10344;DHT22;5217;43.960;10.954;2022-12-05T11:46:56;16.50;99.90
10344;DHT22;5217;43.960;10.954;2022-12-05T11:49:49;16.50;99.90
10344;DHT22;5217;43.960;10.954;2022-12-05T11:52:30;16.50;99.90
10344;DHT22;5217;43.960;10.954;2022-12-05T11:55:14;16.50;99.90
10344;DHT22;5217;43.960;10.954;2022-12-05T12:00:49;16.50;99.90
10344;DHT22;5217;43.960;10.954;2022-12-05T12:03:46;16.50;99.90
10344;DHT22;5217;43.960;10.954;2022-12-05T12:06:27;16.50;99.90
10344;DHT22;5217;43.960;10.954;2022-12-05T12:09:17;16.50;99.90
10344;DHT22;5217;43.960;10.954;2022-12-05T12:11:51;16.60;99.90
10344;DHT22;5217;43.960;10.954;2022-12-05T12:14:27;16.60;99.90
10344;DHT22;5217;43.960;10.954;2022-12-05T12:17:05;16.50;99.90
10344;DHT22;5217;43.960;10.954;2022-12-05T12:19:53;16.60;99.90
10344;DHT22;5217;43.960;10.954;2022-12-05T12:22:38;16.50;99.90
10344;DHT22;5217;43.960;10.954;2022-12-05T12:25:23;16.60;99.90
10344;DHT22;5217;43.960;10.954;2022-12-05T12:28:01;16.50;99.90
10344;DHT22;5217;43.960;10.954;2022-12-05T12:30:44;16.60;99.90
10344;DHT22;5217;43.960;10.954;2022-12-05T12:33:25;16.60;99.90
10344;DHT22;5217;43.960;10.954;2022-12-05T12:36:04;16.60;99.90
10344;DHT22;5217;43.960;10.954;2022-12-05T12:38:55;16.70;99.90
10344;DHT22;5217;43.960;10.954;2022-12-05T12:41:40;16.70;99.90
10344;DHT22;5217;43.960;10.954;2022-12-05T12:44:31;16.70;99.90
10344;DHT22;5217;43.960;10.954;2022-12-05T12:47:11;16.70;99.90
10344;DHT22;5217;43.960;10.954;2022-12-05T12:49:52;16.70;99.90
10344;DHT22;5217;43.960;10.954;2022-12-05T12:52:25;16.70;99.90
10344;DHT22;5217;43.960;10.954;2022-12-05T12:55:05;16.70;99.90
10344;DHT22;5217;43.960;10.954;2022-12-05T12:57:48;16.70;99.90
10344;DHT22;5217;43.960;10.954;2022-12-05T13:00:22;16.70;99.90
10344;DHT22;5217;43.960;10.954;2022-12-05T13:03:02;16.70;99.90
10344;DHT22;5217;43.960;10.954;2022-12-05T13:05:35;16.70;99.90
10344;DHT22;5217;43.960;10.954;2022-12-05T13:08:10;16.70;99.90
10344;DHT22;5217;43.960;10.954;2022-12-05T13:10:43;16.70;99.90
10344;DHT22;5217;43.960;10.954;2022-12-05T13:13:18;16.70;99.90
10344;DHT22;5217;43.960;10.954;2022-12-05T13:15:50;16.70;99.90
10344;DHT22;5217;43.960;10.954;2022-12-05T13:18:21;16.70;99.90
10344;DHT22;5217;43.960;10.954;2022-12-05T13:20:54;16.70;99.90
10344;DHT22;5217;43.960;10.954;2022-12-05T13:23:26;16.70;99.90
10344;DHT22;5217;43.960;10.954;2022-12-05T13:25:55;16.70;99.90
10344;DHT22;5217;43.960;10.954;2022-12-05T13:28:28;16.70;99.90
10344;DHT22;5217;43.960;10.954;2022-12-05T13:30:58;16.70;99.90
10344;DHT22;5217;43.960;10.954;2022-12-05T13:33:34;16.70;99.90
10344;DHT22;5217;43.960;10.954;2022-12-05T13:36:06;16.70;99.90
10344;DHT22;5217;43.960;10.954;2022-12-05T13:38:57;16.70;99.90
10344;DHT22;5217;43.960;10.954;2022-12-05T13:41:45;16.80;99.90
10344;DHT22;5217;43.960;10.954;2022-12-05T13:44:36;16.80;99.90
10344;DHT22;5217;43.960;10.954;2022-12-05T13:47:16;16.80;99.90
10344;DHT22;5217;43.960;10.954;2022-12-05T13:49:50;16.80;99.90
10344;DHT22;5217;43.960;10.954;2022-12-05T13:52:24;16.80;99.90
10344;DHT22;5217;43.960;10.954;2022-12-05T13:54:57;16.80;99.90
10344;DHT22;5217;43.960;10.954;2022-12-05T13:57:46;16.90;99.90
10344;DHT22;5217;43.960;10.954;2022-12-05T14:00:27;16.90;99.90
10344;DHT22;5217;43.960;10.954;2022-12-05T14:06:56;16.80;99.90
10344;DHT22;5217;43.960;10.954;2022-12-05T14:09:29;16.80;99.90
10344;DHT22;5217;43.960;10.954;2022-12-05T14:15:31;16.80;99.90
10344;DHT22;5217;43.960;10.954;2022-12-05T14:18:09;16.80;99.90
10344;DHT22;5217;43.960;10.954;2022-12-05T14:20:52;16.90;99.90
10344;DHT22;5217;43.960;10.954;2022-12-05T14:23:37;16.90;99.90
10344;DHT22;5217;43.960;10.954;2022-12-05T14:26:34;16.90;99.90
10344;DHT22;5217;43.960;10.954;2022-12-05T14:29:16;16.90;99.90
10344;DHT22;5217;43.960;10.954;2022-12-05T14:32:03;16.90;99.90
10344;DHT22;5217;43.960;10.954;2022-12-05T14:34:34;16.90;99.90
10344;DHT22;5217;43.960;10.954;2022-12-05T14:37:06;16.90;99.90
10344;DHT22;5217;43.960;10.954;2022-12-05T14:39:38;16.90;99.90
10344;DHT22;5217;43.960;10.954;2022-12-05T14:42:24;16.90;99.90
10344;DHT22;5217;43.960;10.954;2022-12-05T14:44:56;16.90;99.90
10344;DHT22;5217;43.960;10.954;2022-12-05T14:47:29;16.90;99.90
10344;DHT22;5217;43.960;10.954;2022-12-05T14:50:11;16.90;99.90
10344;DHT22;5217;43.960;10.954;2022-12-05T14:56:06;16.80;99.90
10344;DHT22;5217;43.960;10.954;2022-12-05T14:58:42;16.90;99.90
10344;DHT22;5217;43.960;10.954;2022-12-05T15:01:15;16.80;99.90
10344;DHT22;5217;43.960;10.954;2022-12-05T15:04:03;16.80;99.90
10344;DHT22;5217;43.960;10.954;2022-12-05T15:06:34;16.80;99.90
10344;DHT22;5217;43.960;10.954;2022-12-05T15:09:07;16.80;99.90
10344;DHT22;5217;43.960;10.954;2022-12-05T15:11:56;16.80;99.90
10344;DHT22;5217;43.960;10.954;2022-12-05T15:14:36;16.80;99.90
10344;DHT22;5217;43.960;10.954;2022-12-05T15:17:11;16.80;99.90
10344;DHT22;5217;43.960;10.954;2022-12-05T15:19:49;16.80;99.90
10344;DHT22;5217;43.960;10.954;2022-12-05T15:22:20;16.80;99.90
10344;DHT22;5217;43.960;10.954;2022-12-05T15:24:50;16.80;99.90
10344;DHT22;5217;43.960;10.954;2022-12-05T15:27:19;16.80;99.90
10344;DHT22;5217;43.960;10.954;2022-12-05T15:29:48;16.80;99.90
10344;DHT22;5217;43.960;10.954;2022-12-05T15:32:24;16.80;99.90
10344;DHT22;5217;43.960;10.954;2022-12-05T15:34:58;16.80;99.90
10344;DHT22;5217;43.960;10.954;2022-12-05T15:37:31;16.80;99.90
10344;DHT22;5217;43.960;10.954;2022-12-05T15:40:06;16.80;99.90
10344;DHT22;5217;43.960;10.954;2022-12-05T15:42:41;16.80;99.90
10344;DHT22;5217;43.960;10.954;2022-12-05T15:45:18;16.80;99.90
10344;DHT22;5217;43.960;10.954;2022-12-05T15:47:50;16.80;99.90
10344;DHT22;5217;43.960;10.954;2022-12-05T15:50:27;16.80;99.90
10344;DHT22;5217;43.960;10.954;2022-12-05T15:53:01;16.80;99.90
10344;DHT22;5217;43.960;10.954;2022-12-05T15:55:36;16.80;99.90
10344;DHT22;5217;43.960;10.954;2022-12-05T15:58:08;16.70;99.90
10344;DHT22;5217;43.960;10.954;2022-12-05T16:00:42;16.80;99.90
10344;DHT22;5217;43.960;10.954;2022-12-05T16:03:15;16.80;99.90
10344;DHT22;5217;43.960;10.954;2022-12-05T16:05:51;16.80;99.90
10344;DHT22;5217;43.960;10.954;2022-12-05T16:08:21;16.70;99.90
10344;DHT22;5217;43.960;10.954;2022-12-05T16:10:50;16.70;99.90
10344;DHT22;5217;43.960;10.954;2022-12-05T16:13:22;16.70;99.90
10344;DHT22;5217;43.960;10.954;2022-12-05T16:15:53;16.70;99.90
10344;DHT22;5217;43.960;10.954;2022-12-05T16:18:25;16.70;99.90
10344;DHT22;5217;43.960;10.954;2022-12-05T16:20:56;16.70;99.90
10344;DHT22;5217;43.960;10.954;2022-12-05T16:23:26;16.70;99.90
10344;DHT22;5217;43.960;10.954;2022-12-05T16:26:13;16.70;99.90
10344;DHT22;5217;43.960;10.954;2022-12-05T16:28:56;16.70;99.90
10344;DHT22;5217;43.960;10.954;2022-12-05T16:31:25;16.70;99.90